Time;durP1;ratioP1;P1;durP2;ratioP2;P2;SDS_P1;SDS_P2;PMS_P1;PMS_P2;Temp;Humidity;BMP_temperature;BMP_pressure;BME280_temperature;BME280_humidity;BME280_pressure;Samples;Min_cycle;Max_cycle;Signal;HPM_P1;HPM_P2
2023/06/19 00:02:48;;;;;;;17.10;11.43;;;20.00;99.90;;;;;;5069544;28;20059;-64
2023/06/19 00:05:52;;;;;;;15.52;12.07;;;20.00;99.90;;;;;;5069480;28;20403;-64
2023/06/19 00:08:56;;;;;;;15.68;11.88;;;20.00;99.90;;;;;;5069608;28;20040;-64
2023/06/19 00:12:01;;;;;;;14.95;11.98;;;19.90;99.90;;;;;;5069591;28;20059;-63
2023/06/19 00:15:07;;;;;;;15.10;11.90;;;19.90;99.90;;;;;;5069664;28;20051;-63
2023/06/19 00:18:11;;;;;;;14.20;11.60;;;19.90;99.90;;;;;;5069548;28;20044;-63
2023/06/19 00:21:16;;;;;;;14.98;11.40;;;19.90;99.90;;;;;;5069704;28;20047;-63
2023/06/19 00:24:19;;;;;;;14.75;11.75;;;19.80;99.90;;;;;;5069791;28;20055;-62
2023/06/19 00:27:24;;;;;;;17.65;12.25;;;19.80;99.90;;;;;;5069712;28;20403;-63
2023/06/19 00:30:32;;;;;;;18.80;12.75;;;19.80;99.90;;;;;;5069210;28;20047;-63
2023/06/19 00:33:36;;;;;;;22.02;12.32;;;19.60;99.90;;;;;;5069070;28;20052;-63
2023/06/19 00:36:40;;;;;;;17.48;11.75;;;19.70;99.90;;;;;;5068998;28;20035;-63
2023/06/19 00:39:44;;;;;;;17.92;12.65;;;19.70;99.90;;;;;;5071116;28;20047;-62
2023/06/19 00:42:48;;;;;;;15.23;11.82;;;19.60;99.90;;;;;;5072584;28;20052;-63
2023/06/19 00:45:53;;;;;;;17.00;12.15;;;19.60;99.90;;;;;;5072721;28;20047;-63
2023/06/19 00:48:57;;;;;;;14.60;11.60;;;19.60;99.90;;;;;;5072518;28;20043;-63
2023/06/19 00:52:02;;;;;;;15.93;12.27;;;19.60;99.90;;;;;;5072573;28;20043;-63
2023/06/19 00:55:07;;;;;;;15.60;12.27;;;19.50;99.90;;;;;;5072763;28;20119;-62
2023/06/19 00:58:11;;;;;;;17.63;11.18;;;19.50;99.90;;;;;;5072563;28;20048;-63
2023/06/19 01:01:16;;;;;;;14.18;11.60;;;19.40;99.90;;;;;;5071309;28;20055;-63
2023/06/19 01:04:19;;;;;;;17.38;11.95;;;19.40;99.90;;;;;;5071527;28;20111;-63
2023/06/19 01:08:02;;;;;;;17.70;11.73;;;19.40;99.90;;;;;;5071717;28;20067;-64
2023/06/19 01:11:07;;;;;;;14.77;11.52;;;19.30;99.90;;;;;;5071288;28;20407;-63
2023/06/19 01:14:33;;;;;;;15.02;10.68;;;19.20;99.90;;;;;;5071980;28;20052;-63
2023/06/19 01:17:39;;;;;;;18.25;11.40;;;19.20;99.90;;;;;;5072424;28;20040;-63
2023/06/19 01:20:44;;;;;;;13.90;11.00;;;19.20;99.90;;;;;;5071959;28;20051;-62
2023/06/19 01:23:47;;;;;;;13.05;10.93;;;19.20;99.90;;;;;;5071427;28;20039;-63
2023/06/19 01:26:52;;;;;;;13.45;9.93;;;19.10;99.90;;;;;;5072057;28;20063;-63
2023/06/19 01:30:00;;;;;;;14.73;10.15;;;19.10;99.90;;;;;;5070919;28;20036;-63
2023/06/19 01:33:12;;;;;;;13.85;10.13;;;19.10;99.90;;;;;;5071953;28;20044;-63
2023/06/19 01:36:18;;;;;;;16.02;10.65;;;19.10;99.90;;;;;;5071918;28;20415;-63
2023/06/19 01:39:24;;;;;;;16.90;10.75;;;19.10;99.90;;;;;;5071758;28;20047;-64
2023/06/19 01:42:28;;;;;;;13.63;11.07;;;19.10;99.90;;;;;;5070853;28;20048;-62
2023/06/19 01:45:34;;;;;;;15.52;11.63;;;19.00;99.90;;;;;;5071031;28;20058;-63
2023/06/19 01:48:39;;;;;;;13.60;10.43;;;19.00;99.90;;;;;;5071790;28;20540;-63
2023/06/19 01:51:44;;;;;;;16.77;11.57;;;18.90;99.90;;;;;;5070800;28;20044;-63
2023/06/19 01:54:48;;;;;;;16.38;12.18;;;18.90;99.90;;;;;;5071579;28;20048;-63
2023/06/19 01:57:52;;;;;;;21.95;12.07;;;18.80;99.90;;;;;;5070353;28;20047;-63
2023/06/19 02:00:56;;;;;;;15.93;11.73;;;18.90;99.90;;;;;;5070344;28;20051;-62
2023/06/19 02:03:59;;;;;;;13.98;10.75;;;18.80;99.90;;;;;;5071485;28;20201;-64
2023/06/19 02:07:04;;;;;;;17.85;13.23;;;18.80;99.90;;;;;;5070625;28;20052;-62
2023/06/19 02:10:08;;;;;;;16.42;12.35;;;18.80;99.90;;;;;;5070303;28;20103;-63
2023/06/19 02:13:13;;;;;;;21.65;11.10;;;18.80;99.90;;;;;;5071102;28;20043;-63
2023/06/19 02:16:17;;;;;;;14.95;11.25;;;18.70;99.90;;;;;;5070273;28;20040;-63
2023/06/19 02:19:20;;;;;;;17.75;12.20;;;18.50;99.90;;;;;;5071178;28;20047;-63
2023/06/19 02:22:24;;;;;;;21.88;12.68;;;18.30;99.90;;;;;;5070617;28;20509;-63
2023/06/19 02:25:28;;;;;;;14.68;11.13;;;18.20;99.90;;;;;;5070699;28;20426;-63
2023/06/19 02:28:32;;;;;;;16.65;10.65;;;18.20;99.90;;;;;;5070948;28;20043;-63
2023/06/19 02:31:36;;;;;;;13.95;11.60;;;18.20;99.90;;;;;;5069742;28;20051;-63
2023/06/19 02:34:42;;;;;;;21.80;12.63;;;18.20;99.90;;;;;;5070206;28;20051;-62
2023/06/19 02:37:47;;;;;;;14.73;11.35;;;18.20;99.90;;;;;;5070935;28;20403;-63
2023/06/19 02:40:51;;;;;;;13.55;10.98;;;18.20;99.90;;;;;;5070639;28;20047;-63
2023/06/19 02:43:55;;;;;;;13.90;10.45;;;18.20;99.90;;;;;;5070735;28;20040;-63
2023/06/19 02:46:59;;;;;;;14.40;10.95;;;18.20;99.90;;;;;;5070821;28;20063;-62
2023/06/19 02:50:03;;;;;;;12.13;10.13;;;18.20;99.90;;;;;;5070846;28;20122;-63
2023/06/19 02:53:09;;;;;;;13.68;9.82;;;18.20;99.90;;;;;;5070438;28;20526;-63
2023/06/19 02:56:13;;;;;;;13.15;10.02;;;18.20;99.90;;;;;;5070775;28;20052;-61
2023/06/19 02:59:17;;;;;;;18.02;11.20;;;18.10;99.90;;;;;;5070624;28;20048;-63
2023/06/19 03:02:21;;;;;;;17.10;10.95;;;18.10;99.90;;;;;;5069767;28;20052;-63
2023/06/19 03:05:27;;;;;;;15.50;11.23;;;18.10;99.90;;;;;;5070288;28;20510;-63
2023/06/19 03:08:31;;;;;;;15.23;10.43;;;18.00;99.90;;;;;;5070234;28;20063;-63
2023/06/19 03:11:35;;;;;;;12.85;10.35;;;18.00;99.90;;;;;;5069499;28;20035;-63
2023/06/19 03:14:39;;;;;;;16.20;10.90;;;18.00;99.90;;;;;;5069144;28;20047;-63
2023/06/19 03:17:44;;;;;;;17.40;10.73;;;18.10;99.90;;;;;;5069249;28;20043;-63
2023/06/19 03:20:49;;;;;;;15.65;10.57;;;18.00;99.90;;;;;;5069052;28;20533;-62
2023/06/19 03:23:53;;;;;;;15.13;10.85;;;18.00;99.90;;;;;;5069426;28;20048;-63
2023/06/19 03:26:59;;;;;;;12.77;9.95;;;17.90;99.90;;;;;;5069261;28;20052;-63
2023/06/19 03:30:08;;;;;;;14.73;10.38;;;17.90;99.90;;;;;;5068976;28;20035;-62
2023/06/19 03:33:16;;;;;;;14.48;10.13;;;17.80;99.90;;;;;;5068694;28;20044;-63
2023/06/19 03:36:23;;;;;;;16.50;11.18;;;17.80;99.90;;;;;;5069135;28;20075;-63
2023/06/19 03:39:28;;;;;;;13.55;10.10;;;17.70;99.90;;;;;;5068891;28;20048;-63
2023/06/19 03:42:42;;;;;;;14.13;10.45;;;17.70;99.90;;;;;;5068492;28;20043;-63
2023/06/19 03:45:46;;;;;;;13.43;10.70;;;17.70;99.90;;;;;;5068681;28;20043;-63
2023/06/19 03:48:50;;;;;;;14.00;10.40;;;17.70;99.90;;;;;;5069240;28;20509;-63
2023/06/19 03:51:54;;;;;;;16.50;10.23;;;17.70;99.90;;;;;;5069195;28;20048;-63
2023/06/19 03:54:58;;;;;;;18.13;11.07;;;17.90;99.90;;;;;;5069738;28;20506;-62
2023/06/19 03:58:02;;;;;;;13.30;9.85;;;18.00;99.90;;;;;;5069739;28;20051;-63
2023/06/19 04:01:06;;;;;;;15.95;10.27;;;18.10;99.90;;;;;;5068727;28;20040;-63
2023/06/19 04:04:11;;;;;;;14.45;10.20;;;18.20;99.90;;;;;;5068622;28;20048;-63
2023/06/19 04:07:15;;;;;;;12.10;9.07;;;18.30;99.90;;;;;;5069339;28;20052;-63
2023/06/19 04:10:19;;;;;;;12.93;9.73;;;18.40;99.90;;;;;;5069506;28;20039;-63
2023/06/19 04:13:25;;;;;;;14.32;9.70;;;18.50;99.90;;;;;;5070730;28;20378;-63
2023/06/19 04:16:29;;;;;;;15.35;10.75;;;18.60;99.90;;;;;;5072719;28;20055;-63
2023/06/19 04:19:34;;;;;;;11.68;9.02;;;18.60;99.90;;;;;;5072824;28;20059;-63
2023/06/19 04:22:39;;;;;;;11.38;9.40;;;18.70;99.90;;;;;;5073227;28;20098;-63
2023/06/19 04:25:44;;;;;;;14.57;9.98;;;18.70;99.90;;;;;;5072657;28;20048;-63
2023/06/19 04:28:49;;;;;;;15.35;9.52;;;18.80;99.90;;;;;;5073552;28;20044;-63
2023/06/19 04:31:53;;;;;;;14.38;9.13;;;19.70;99.90;;;;;;5071855;28;20051;-63
2023/06/19 04:34:57;;;;;;;12.80;9.40;;;20.90;99.90;;;;;;5073266;28;20502;-57
2023/06/19 04:38:01;;;;;;;17.05;9.52;;;22.20;99.90;;;;;;5073309;28;20403;-59
2023/06/19 04:41:05;;;;;;;15.95;8.25;;;23.00;99.90;;;;;;5073246;28;20502;-63
2023/06/19 04:44:11;;;;;;;10.60;7.40;;;23.90;99.90;;;;;;5072924;28;20060;-63
2023/06/19 04:47:20;;;;;;;11.18;8.40;;;24.10;99.90;;;;;;5072667;28;20431;-62
2023/06/19 04:50:24;;;;;;;8.55;7.47;;;24.40;99.90;;;;;;5073131;28;20055;-63
2023/06/19 04:53:28;;;;;;;12.13;8.60;;;24.50;99.90;;;;;;5072531;28;20055;-63
2023/06/19 04:56:32;;;;;;;11.10;8.73;;;23.60;99.90;;;;;;5073121;28;20047;-64
2023/06/19 04:59:36;;;;;;;12.75;8.25;;;25.30;99.90;;;;;;5073084;28;20123;-63
2023/06/19 05:02:43;;;;;;;10.43;7.28;;;25.50;99.90;;;;;;5072727;28;20059;-62
2023/06/19 05:05:47;;;;;;;10.20;7.07;;;27.30;99.90;;;;;;5072857;28;20047;-63
2023/06/19 05:08:52;;;;;;;13.68;6.40;;;28.20;99.90;;;;;;5072733;28;20063;-62
2023/06/19 05:11:57;;;;;;;13.50;7.25;;;28.90;99.90;;;;;;5072392;28;20043;-63
2023/06/19 05:15:01;;;;;;;7.57;5.95;;;29.50;99.90;;;;;;5072137;28;20040;-63
2023/06/19 05:18:05;;;;;;;9.77;6.45;;;30.00;99.90;;;;;;5072144;28;20419;-63
2023/06/19 05:21:09;;;;;;;11.10;7.25;;;29.70;99.90;;;;;;5072177;28;20052;-64
2023/06/19 05:24:13;;;;;;;9.07;6.35;;;29.00;99.90;;;;;;5071343;28;20051;-64
2023/06/19 05:27:17;;;;;;;8.43;6.53;;;28.60;99.90;;;;;;5072049;28;20047;-63
2023/06/19 05:30:21;;;;;;;8.18;6.47;;;28.60;99.90;;;;;;5072007;28;20067;-63
2023/06/19 05:33:25;;;;;;;8.73;6.78;;;27.10;99.90;;;;;;5071247;28;20039;-63
2023/06/19 05:36:29;;;;;;;9.55;7.40;;;24.90;99.90;;;;;;5071944;28;20047;-63
2023/06/19 05:39:33;;;;;;;10.07;7.45;;;23.90;99.90;;;;;;5071842;28;20052;-63
2023/06/19 05:42:37;;;;;;;12.63;7.88;;;22.70;99.90;;;;;;5071937;28;20406;-63
2023/06/19 05:45:41;;;;;;;13.60;7.88;;;22.00;99.90;;;;;;5071765;28;20052;-63
2023/06/19 05:48:45;;;;;;;11.27;8.48;;;21.20;99.90;;;;;;5071591;28;20040;-63
2023/06/19 05:51:49;;;;;;;14.68;8.77;;;20.70;99.90;;;;;;5071523;28;20835;-61
2023/06/19 05:54:53;;;;;;;12.20;9.23;;;20.40;99.90;;;;;;5067018;28;20048;-61
2023/06/19 05:57:57;;;;;;;12.27;8.80;;;20.20;99.90;;;;;;5054883;28;20035;-61
2023/06/19 06:01:02;;;;;;;11.40;8.27;;;20.40;99.90;;;;;;5065693;28;20035;-62
2023/06/19 06:04:07;;;;;;;12.15;8.45;;;20.60;99.90;;;;;;5069173;28;20056;-63
2023/06/19 06:07:11;;;;;;;14.57;8.00;;;20.80;99.90;;;;;;5060620;28;20403;-60
2023/06/19 06:10:16;;;;;;;10.95;8.52;;;21.10;99.90;;;;;;5057366;28;20052;-59
2023/06/19 06:13:21;;;;;;;17.00;9.00;;;21.10;99.90;;;;;;5055315;28;20035;-62
2023/06/19 06:16:25;;;;;;;11.07;8.90;;;21.10;99.90;;;;;;5052384;28;20040;-62
2023/06/19 06:19:28;;;;;;;13.65;9.32;;;21.00;99.90;;;;;;5051991;28;20044;-62
2023/06/19 06:22:32;;;;;;;14.50;8.95;;;20.90;99.90;;;;;;5051227;28;20511;-62
2023/06/19 06:25:36;;;;;;;16.25;8.85;;;21.00;99.90;;;;;;5055311;28;20044;-62
2023/06/19 06:28:41;;;;;;;14.43;9.07;;;21.20;99.90;;;;;;5061503;28;20051;-63
2023/06/19 06:31:47;;;;;;;11.40;8.55;;;21.40;99.90;;;;;;5056719;28;20047;-63
2023/06/19 06:34:52;;;;;;;14.90;9.20;;;21.40;99.90;;;;;;5064950;28;20044;-64
2023/06/19 06:37:55;;;;;;;12.65;8.05;;;21.50;99.90;;;;;;5059752;28;20039;-62
2023/06/19 06:40:59;;;;;;;12.68;7.43;;;21.10;99.90;;;;;;5055903;28;20052;-63
2023/06/19 06:44:04;;;;;;;11.00;7.18;;;21.40;99.90;;;;;;5063999;28;20044;-62
2023/06/19 06:47:08;;;;;;;9.93;7.22;;;21.80;99.90;;;;;;5063148;28;20050;-62
2023/06/19 06:50:12;;;;;;;8.30;6.88;;;22.30;99.90;;;;;;5060205;28;20140;-63
2023/06/19 06:53:16;;;;;;;9.98;7.63;;;22.30;99.90;;;;;;5050909;28;20119;-63
2023/06/19 06:56:20;;;;;;;12.82;8.30;;;22.40;99.90;;;;;;5065061;28;20040;-60
2023/06/19 06:59:27;;;;;;;9.40;6.68;;;21.60;99.90;;;;;;5056355;28;20052;-63
2023/06/19 07:02:32;;;;;;;12.13;7.85;;;22.00;99.90;;;;;;5056281;28;20047;-63
2023/06/19 07:05:36;;;;;;;10.70;7.32;;;22.30;99.90;;;;;;5057265;28;20054;-62
2023/06/19 07:08:40;;;;;;;10.15;6.82;;;22.70;99.90;;;;;;5061013;28;20202;-63
2023/06/19 07:11:44;;;;;;;8.18;6.97;;;23.10;99.90;;;;;;5059956;28;20090;-61
2023/06/19 07:14:52;;;;;;;12.18;7.30;;;23.40;99.90;;;;;;5065332;28;20048;-62
2023/06/19 07:17:56;;;;;;;13.25;7.53;;;23.80;99.90;;;;;;5069975;28;20506;-64
2023/06/19 07:21:02;;;;;;;14.73;7.65;;;23.80;99.90;;;;;;5070208;28;20047;-63
2023/06/19 07:24:06;;;;;;;10.20;7.35;;;23.80;99.90;;;;;;5070095;28;20048;-61
2023/06/19 07:27:10;;;;;;;9.82;7.25;;;24.20;99.90;;;;;;5063000;28;20047;-64
2023/06/19 07:30:14;;;;;;;10.80;7.38;;;23.70;99.90;;;;;;5057741;28;20064;-63
2023/06/19 07:33:18;;;;;;;10.95;7.45;;;23.90;99.90;;;;;;5054283;28;20039;-63
2023/06/19 07:36:22;;;;;;;11.60;8.43;;;23.90;99.90;;;;;;5061338;28;20055;-63
2023/06/19 07:39:26;;;;;;;11.90;7.55;;;24.00;99.90;;;;;;5055662;28;20051;-62
2023/06/19 07:42:30;;;;;;;10.27;7.68;;;24.10;99.90;;;;;;5050613;28;20439;-61
2023/06/19 07:45:34;;;;;;;9.38;7.57;;;24.20;99.90;;;;;;5057049;28;20510;-62
2023/06/19 07:48:37;;;;;;;10.15;7.95;;;23.90;99.90;;;;;;5048689;28;20044;-63
2023/06/19 07:51:41;;;;;;;16.23;7.80;;;23.90;99.90;;;;;;5057689;28;20415;-63
2023/06/19 07:54:56;;;;;;;10.25;7.40;;;24.50;99.90;;;;;;5060784;28;20035;-62
2023/06/19 07:58:01;;;;;;;12.23;7.82;;;24.70;99.90;;;;;;5063061;28;20039;-62
2023/06/19 08:01:05;;;;;;;11.80;8.05;;;25.30;99.90;;;;;;5056562;28;20040;-62
2023/06/19 08:04:09;;;;;;;18.20;8.48;;;25.20;99.90;;;;;;5050967;28;20056;-61
2023/06/19 08:07:13;;;;;;;13.40;8.00;;;25.20;99.90;;;;;;5049164;28;20048;-63
2023/06/19 08:10:17;;;;;;;13.73;7.78;;;25.20;99.90;;;;;;5049502;28;20059;-63
2023/06/19 08:13:21;;;;;;;11.07;8.40;;;25.30;99.90;;;;;;5049440;28;20052;-59
2023/06/19 08:16:26;;;;;;;15.85;9.32;;;25.50;99.90;;;;;;5048331;28;20048;-59
2023/06/19 08:19:29;;;;;;;17.13;11.60;;;24.90;99.90;;;;;;5053803;28;20520;-63
2023/06/19 08:22:33;;;;;;;16.95;12.13;;;25.80;99.90;;;;;;5064485;28;20662;-62
2023/06/19 08:25:37;;;;;;;25.80;13.07;;;26.00;99.90;;;;;;5051601;28;20048;-63
2023/06/19 08:28:41;;;;;;;22.10;14.38;;;26.10;99.90;;;;;;5061742;28;20036;-59
2023/06/19 08:31:45;;;;;;;21.45;12.40;;;26.80;99.90;;;;;;5055860;28;20040;-61
2023/06/19 08:34:49;;;;;;;18.20;12.68;;;26.80;99.90;;;;;;5055731;28;20044;-62
2023/06/19 08:37:54;;;;;;;17.58;12.15;;;27.10;99.90;;;;;;5056546;28;20059;-63
2023/06/19 08:40:59;;;;;;;18.17;10.68;;;28.30;99.90;;;;;;5056727;28;20048;-62
2023/06/19 08:44:04;;;;;;;14.02;10.35;;;28.60;99.90;;;;;;5051557;28;20064;-61
2023/06/19 08:47:09;;;;;;;15.32;9.20;;;30.70;99.90;;;;;;5048297;28;20063;-63
2023/06/19 08:50:14;;;;;;;11.32;8.32;;;32.90;99.90;;;;;;5054765;28;20027;-63
2023/06/19 08:53:18;;;;;;;11.63;8.07;;;35.50;98.50;;;;;;5065249;28;20399;-63
2023/06/19 08:56:22;;;;;;;10.48;6.97;;;34.60;98.30;;;;;;5060437;28;20059;-63
2023/06/19 08:59:28;;;;;;;8.85;6.90;;;33.40;97.90;;;;;;5070195;28;20047;-60
2023/06/19 09:02:43;;;;;;;10.02;6.10;;;34.00;98.10;;;;;;5072453;28;20047;-62
2023/06/19 09:05:50;;;;;;;10.00;5.28;;;36.50;96.60;;;;;;5072063;28;20043;-63
2023/06/19 09:08:59;;;;;;;6.80;5.00;;;39.30;94.20;;;;;;5070622;28;20039;-62
2023/06/19 09:12:06;;;;;;;10.27;4.78;;;40.20;91.70;;;;;;5052609;28;20517;-64
2023/06/19 09:15:15;;;;;;;9.38;5.00;;;37.70;92.00;;;;;;5070529;28;20059;-63
2023/06/19 09:18:20;;;;;;;7.45;4.53;;;37.80;91.70;;;;;;5066319;28;20396;-64
2023/06/19 09:21:24;;;;;;;9.02;4.88;;;36.30;91.90;;;;;;5064252;28;20044;-62
2023/06/19 09:24:36;;;;;;;10.10;4.63;;;34.90;92.10;;;;;;5056056;28;20044;-64
2023/06/19 09:27:40;;;;;;;5.13;4.63;;;34.40;92.70;;;;;;5050916;28;20047;-62
2023/06/19 09:31:02;;;;;;;6.28;4.22;;;36.20;92.10;;;;;;5070334;28;20056;-62
2023/06/19 09:34:06;;;;;;;6.85;5.55;;;35.50;92.50;;;;;;5071679;28;20051;-63
2023/06/19 09:37:10;;;;;;;5.68;4.57;;;34.70;92.10;;;;;;5071613;28;20398;-62
2023/06/19 09:40:14;;;;;;;7.53;4.70;;;32.40;93.80;;;;;;5071786;28;20048;-63
2023/06/19 09:43:33;;;;;;;7.82;5.25;;;32.60;94.30;;;;;;5051669;28;20518;-61
2023/06/19 09:46:37;;;;;;;9.10;4.82;;;32.20;93.80;;;;;;5056701;28;20047;-63
2023/06/19 09:49:41;;;;;;;6.07;4.68;;;33.90;92.50;;;;;;5053823;28;20078;-63
2023/06/19 09:52:46;;;;;;;7.13;3.97;;;35.20;91.10;;;;;;5056213;28;20036;-64
2023/06/19 09:55:51;;;;;;;7.90;4.72;;;37.70;90.80;;;;;;5060301;28;20047;-64
2023/06/19 09:59:00;;;;;;;7.45;3.60;;;38.40;90.40;;;;;;5062658;28;20286;-62
2023/06/19 10:02:06;;;;;;;4.30;3.83;;;39.80;86.30;;;;;;5056753;28;20047;-62
2023/06/19 10:05:14;;;;;;;8.85;3.75;;;40.00;85.50;;;;;;5055590;28;20052;-62
2023/06/19 10:08:30;;;;;;;6.53;3.45;;;41.40;84.40;;;;;;5069300;28;20043;-62
2023/06/19 10:11:48;;;;;;;4.10;3.10;;;39.20;83.00;;;;;;5055678;28;20442;-60
2023/06/19 10:14:52;;;;;;;3.58;3.25;;;40.30;81.60;;;;;;5058436;28;20040;-63
2023/06/19 10:18:05;;;;;;;3.97;3.10;;;41.40;78.30;;;;;;5058598;28;20047;-63
2023/06/19 10:21:19;;;;;;;4.80;3.42;;;42.90;74.60;;;;;;5067129;28;20040;-63
2023/06/19 10:24:26;;;;;;;6.93;3.20;;;40.40;73.40;;;;;;5053605;28;20048;-62
2023/06/19 10:27:37;;;;;;;4.32;3.05;;;39.70;73.60;;;;;;5070574;28;20518;-63
2023/06/19 10:30:41;;;;;;;3.78;3.20;;;41.80;73.60;;;;;;5068776;28;20051;-64
2023/06/19 10:33:45;;;;;;;3.90;3.50;;;42.90;70.20;;;;;;5060010;28;20047;-64
2023/06/19 10:36:49;;;;;;;4.18;3.17;;;43.70;70.40;;;;;;5061655;28;20051;-63
2023/06/19 10:39:53;;;;;;;5.13;3.15;;;42.90;68.80;;;;;;5060879;28;20052;-63
2023/06/19 10:42:57;;;;;;;6.20;3.30;;;42.80;70.00;;;;;;5063076;28;20043;-64
2023/06/19 10:46:04;;;;;;;4.60;3.50;;;39.40;68.90;;;;;;5060996;28;20052;-64
2023/06/19 10:49:10;;;;;;;9.85;3.72;;;37.10;72.50;;;;;;5062183;28;20044;-64
2023/06/19 10:52:15;;;;;;;4.07;3.53;;;38.10;70.90;;;;;;5064326;28;20051;-63
2023/06/19 10:55:19;;;;;;;4.57;3.35;;;38.60;71.60;;;;;;5057609;28;20040;-64
2023/06/19 10:58:23;;;;;;;5.07;3.40;;;37.10;69.20;;;;;;5053999;28;20043;-63
2023/06/19 11:01:42;;;;;;;5.25;3.20;;;37.30;70.30;;;;;;5063235;28;20048;-64
2023/06/19 11:04:45;;;;;;;4.28;3.55;;;38.60;70.00;;;;;;5058521;28;20035;-63
2023/06/19 11:07:54;;;;;;;6.25;3.40;;;38.70;69.90;;;;;;5053828;28;20438;-64
2023/06/19 11:10:58;;;;;;;3.85;3.28;;;39.60;71.20;;;;;;5056735;28;20047;-63
2023/06/19 11:14:03;;;;;;;4.30;3.22;;;40.30;70.00;;;;;;5053584;28;20044;-62
2023/06/19 11:17:07;;;;;;;4.07;3.15;;;39.30;71.70;;;;;;5059968;28;20401;-61
2023/06/19 11:20:13;;;;;;;3.92;3.30;;;38.90;69.60;;;;;;5058978;28;20056;-62
2023/06/19 11:23:25;;;;;;;5.78;3.35;;;38.70;71.20;;;;;;5059629;28;20062;-63
2023/06/19 11:26:29;;;;;;;11.25;4.32;;;39.50;70.50;;;;;;5051368;28;20051;-63
2023/06/19 11:29:35;;;;;;;6.32;3.88;;;36.30;68.70;;;;;;5055773;28;20044;-61
2023/06/19 11:32:41;;;;;;;10.15;4.70;;;36.90;70.90;;;;;;5059571;28;20051;-64
2023/06/19 11:35:50;;;;;;;6.82;4.18;;;36.80;69.80;;;;;;5054607;28;20044;-62
2023/06/19 11:38:55;;;;;;;8.23;4.35;;;36.20;72.20;;;;;;5053764;28;20497;-59
2023/06/19 11:42:00;;;;;;;8.30;3.80;;;36.60;70.50;;;;;;5055671;28;20047;-60
2023/06/19 11:45:07;;;;;;;5.57;4.10;;;37.70;68.00;;;;;;5051719;28;20064;-65
2023/06/19 11:48:12;;;;;;;5.93;3.88;;;37.60;68.70;;;;;;5053269;28;20056;-63
2023/06/19 11:51:17;;;;;;;4.43;3.85;;;37.50;68.90;;;;;;5055421;28;20059;-61
2023/06/19 11:54:21;;;;;;;7.60;3.95;;;38.40;71.40;;;;;;5063910;28;20115;-59
2023/06/19 11:57:27;;;;;;;7.53;3.90;;;38.40;67.40;;;;;;5051469;28;20510;-64
2023/06/19 12:00:31;;;;;;;6.85;4.60;;;38.00;68.70;;;;;;5054261;28;20040;-61
2023/06/19 12:03:35;;;;;;;6.70;4.43;;;38.10;70.10;;;;;;5063101;28;20054;-63
2023/06/19 12:06:39;;;;;;;4.30;3.70;;;35.90;72.30;;;;;;5069496;28;20043;-63
2023/06/19 12:09:43;;;;;;;6.07;3.90;;;36.80;70.20;;;;;;5065289;28;20040;-58
2023/06/19 12:12:47;;;;;;;8.32;4.28;;;36.60;70.20;;;;;;5057228;28;20667;-62
2023/06/19 12:15:51;;;;;;;5.80;4.50;;;35.00;74.00;;;;;;5054897;28;20044;-60
2023/06/19 12:18:55;;;;;;;8.15;4.55;;;34.80;74.80;;;;;;5057275;28;20040;-61
2023/06/19 12:21:59;;;;;;;8.07;4.32;;;35.50;73.90;;;;;;5059134;28;20036;-59
2023/06/19 12:25:03;;;;;;;5.07;3.92;;;35.30;72.70;;;;;;5055815;28;20036;-63
2023/06/19 12:28:08;;;;;;;7.25;5.05;;;35.00;74.20;;;;;;5058595;28;20048;-61
2023/06/19 12:31:12;;;;;;;8.30;4.35;;;35.00;74.20;;;;;;5057217;28;20533;-62
2023/06/19 12:34:17;;;;;;;7.03;4.85;;;34.90;73.30;;;;;;5060377;28;20712;-64
2023/06/19 12:37:21;;;;;;;5.55;4.38;;;35.50;72.90;;;;;;5056582;28;20044;-63
2023/06/19 12:40:26;;;;;;;5.90;4.70;;;35.00;74.80;;;;;;5061339;28;20044;-59
2023/06/19 12:43:31;;;;;;;6.55;4.45;;;34.30;72.40;;;;;;5060888;28;20051;-63
2023/06/19 12:46:35;;;;;;;6.55;4.72;;;34.10;74.70;;;;;;5058627;28;20044;-63
2023/06/19 12:49:39;;;;;;;9.90;4.47;;;33.90;73.00;;;;;;5058322;28;20052;-64
2023/06/19 12:52:43;;;;;;;7.25;4.30;;;35.20;71.70;;;;;;5063377;28;20044;-64
2023/06/19 12:55:47;;;;;;;7.25;4.40;;;35.90;72.10;;;;;;5061751;28;20051;-63
2023/06/19 12:58:51;;;;;;;8.27;4.75;;;36.20;73.40;;;;;;5060147;28;20051;-59
2023/06/19 13:01:55;;;;;;;5.93;4.57;;;36.30;74.00;;;;;;5063400;28;20411;-62
2023/06/19 13:05:00;;;;;;;5.68;4.35;;;36.70;72.40;;;;;;5058503;28;20044;-61
2023/06/19 13:08:04;;;;;;;5.32;4.35;;;37.30;71.50;;;;;;5063407;28;20541;-63
2023/06/19 13:11:08;;;;;;;9.43;4.53;;;37.60;70.60;;;;;;5059100;28;20052;-61
2023/06/19 13:14:12;;;;;;;5.47;4.07;;;37.70;72.40;;;;;;5060056;28;20035;-62
2023/06/19 13:17:16;;;;;;;8.27;4.47;;;37.90;70.30;;;;;;5063562;28;20044;-64
2023/06/19 13:20:20;;;;;;;5.18;4.68;;;37.90;71.70;;;;;;5060903;28;20055;-63
2023/06/19 13:23:24;;;;;;;6.55;4.43;;;38.00;71.20;;;;;;5063263;28;20059;-64
2023/06/19 13:26:28;;;;;;;6.50;3.90;;;37.90;71.10;;;;;;5056318;28;20051;-63
2023/06/19 13:29:32;;;;;;;5.43;4.50;;;38.00;73.50;;;;;;5063066;28;20039;-60
2023/06/19 13:32:36;;;;;;;13.50;4.60;;;37.20;74.80;;;;;;5058350;28;20055;-62
2023/06/19 13:35:40;;;;;;;9.15;4.38;;;36.90;73.30;;;;;;5062926;28;20060;-60
2023/06/19 13:38:43;;;;;;;7.05;4.13;;;36.80;74.00;;;;;;5058677;28;20043;-63
2023/06/19 13:41:48;;;;;;;7.50;4.80;;;36.60;74.60;;;;;;5062620;28;20052;-64
2023/06/19 13:44:52;;;;;;;8.40;4.85;;;36.30;77.10;;;;;;5062148;28;20516;-63
2023/06/19 13:47:57;;;;;;;6.50;4.70;;;36.20;76.10;;;;;;5057207;28;20047;-63
2023/06/19 13:51:01;;;;;;;5.57;4.90;;;35.90;73.80;;;;;;5061130;28;20048;-60
2023/06/19 13:54:06;;;;;;;9.27;5.50;;;34.80;75.40;;;;;;5057113;28;20419;-62
2023/06/19 13:57:10;;;;;;;6.93;5.63;;;34.30;77.70;;;;;;5063348;28;20055;-62
2023/06/19 14:00:14;;;;;;;6.85;5.70;;;33.80;78.90;;;;;;5063753;28;20059;-58
2023/06/19 14:03:18;;;;;;;8.90;5.82;;;33.40;76.80;;;;;;5062202;28;20044;-58
2023/06/19 14:06:21;;;;;;;11.90;8.55;;;33.10;79.40;;;;;;5063742;28;20040;-63
2023/06/19 14:09:25;;;;;;;9.18;6.72;;;32.60;79.70;;;;;;5060290;28;20040;-63
2023/06/19 14:12:30;;;;;;;8.80;6.15;;;32.40;80.30;;;;;;5057372;28;20044;-62
2023/06/19 14:15:34;;;;;;;11.45;5.78;;;32.50;81.80;;;;;;5062844;28;20371;-62
2023/06/19 14:18:38;;;;;;;6.40;4.85;;;32.80;79.60;;;;;;5062873;28;20059;-63
2023/06/19 14:21:42;;;;;;;8.23;5.53;;;32.60;82.40;;;;;;5058709;28;20044;-63
2023/06/19 14:24:46;;;;;;;12.43;4.97;;;31.50;81.80;;;;;;5050176;28;20059;-63
2023/06/19 14:27:50;;;;;;;6.55;5.00;;;31.50;79.90;;;;;;5053819;28;20432;-62
2023/06/19 14:30:54;;;;;;;5.15;4.55;;;31.60;80.70;;;;;;5058676;28;20032;-62
2023/06/19 14:33:58;;;;;;;8.60;5.03;;;31.10;81.60;;;;;;5058207;28;20035;-60
2023/06/19 14:37:02;;;;;;;10.25;6.03;;;31.40;81.60;;;;;;5069508;28;20051;-61
2023/06/19 14:40:06;;;;;;;5.93;4.63;;;31.70;81.50;;;;;;5060324;28;20403;-63
2023/06/19 14:43:10;;;;;;;8.63;5.22;;;31.80;82.30;;;;;;5064997;28;20044;-62
2023/06/19 14:46:14;;;;;;;6.15;5.03;;;31.10;81.40;;;;;;5051183;28;20451;-63
2023/06/19 14:49:20;;;;;;;8.65;4.80;;;31.20;83.50;;;;;;5061950;28;20108;-61
2023/06/19 14:52:24;;;;;;;7.97;5.15;;;30.90;81.60;;;;;;5051651;28;20338;-61
2023/06/19 14:55:28;;;;;;;5.63;4.70;;;30.90;83.40;;;;;;5053193;28;20052;-60
2023/06/19 14:58:32;;;;;;;9.90;4.85;;;30.60;82.70;;;;;;5058437;28;20039;-62
2023/06/19 15:01:36;;;;;;;7.13;4.70;;;30.60;82.40;;;;;;5055342;28;20063;-59
2023/06/19 15:04:40;;;;;;;8.45;5.60;;;30.50;81.90;;;;;;5060664;28;20067;-58
2023/06/19 15:07:44;;;;;;;6.63;5.18;;;30.30;83.50;;;;;;5055312;28;20532;-59
2023/06/19 15:10:48;;;;;;;10.63;5.05;;;30.00;84.00;;;;;;5061668;28;20047;-63
2023/06/19 15:13:52;;;;;;;5.70;5.10;;;29.70;85.50;;;;;;5061336;28;20055;-63
2023/06/19 15:16:56;;;;;;;6.43;5.15;;;29.80;85.10;;;;;;5057633;28;20616;-60
2023/06/19 15:20:00;;;;;;;7.15;5.00;;;29.80;85.10;;;;;;5059950;28;20329;-58
2023/06/19 15:23:06;;;;;;;7.78;4.97;;;29.90;86.30;;;;;;5060755;28;20047;-58
2023/06/19 15:26:10;;;;;;;9.95;5.63;;;30.00;87.70;;;;;;5049971;28;20532;-59
2023/06/19 15:29:13;;;;;;;7.03;5.20;;;29.70;86.00;;;;;;5050065;28;20047;-62
2023/06/19 15:32:17;;;;;;;7.80;4.80;;;29.50;85.20;;;;;;5049572;28;20047;-63
2023/06/19 15:35:21;;;;;;;7.93;5.55;;;29.20;86.20;;;;;;5049914;28;20045;-63
2023/06/19 15:38:25;;;;;;;7.25;5.00;;;29.20;86.80;;;;;;5049930;28;20044;-62
2023/06/19 15:41:29;;;;;;;7.18;4.90;;;29.30;85.00;;;;;;5049295;28;20403;-63
2023/06/19 15:44:33;;;;;;;10.90;5.47;;;29.30;85.80;;;;;;5049813;28;20069;-64
2023/06/19 15:47:37;;;;;;;9.02;5.18;;;29.40;86.30;;;;;;5049726;28;20052;-61
2023/06/19 15:50:41;;;;;;;10.05;4.93;;;29.40;86.70;;;;;;5048522;28;20415;-58
2023/06/19 15:53:45;;;;;;;8.25;4.97;;;29.50;87.40;;;;;;5049788;28;20032;-62